createdAt,value
2018-03-26T00:01:15.443Z,31.10
2018-03-26T00:03:43.306Z,35.60
2018-03-26T00:06:11.585Z,35.03
2018-03-26T00:08:39.449Z,29.83
2018-03-26T00:11:07.310Z,28.47
2018-03-26T00:13:36.106Z,29.80
2018-03-26T00:16:03.970Z,29.13
2018-03-26T00:18:31.832Z,30.13
2018-03-26T00:20:59.706Z,27.43
2018-03-26T00:23:27.570Z,29.83
2018-03-26T00:25:55.432Z,29.03
2018-03-26T00:28:23.305Z,32.33
2018-03-26T00:30:51.169Z,27.90
2018-03-26T00:33:19.031Z,27.73
2018-03-26T00:35:46.908Z,26.47
2018-03-26T00:38:14.707Z,27.87
2018-03-26T00:40:43.358Z,24.93
2018-03-26T00:43:11.527Z,22.13
2018-03-26T00:45:39.389Z,24.33
2018-03-26T00:48:07.263Z,30.47
2018-03-26T00:50:35.126Z,26.50
2018-03-26T00:53:02.989Z,26.50
2018-03-26T00:55:30.862Z,31.53
2018-03-26T00:57:58.726Z,33.00
2018-03-26T01:00:26.588Z,31.37
2018-03-26T01:02:54.352Z,33.07
2018-03-26T01:05:22.226Z,35.27
2018-03-26T01:07:49.931Z,37.87
2018-03-26T01:10:18.568Z,41.13
2018-03-26T01:12:46.440Z,39.10
2018-03-26T01:15:14.135Z,37.40
2018-03-26T01:17:42.604Z,37.37
2018-03-26T01:20:10.382Z,43.07
2018-03-26T01:22:38.855Z,34.63
2018-03-26T01:25:07.319Z,38.70
2018-03-26T01:27:35.065Z,44.23
2018-03-26T01:30:02.771Z,39.33
2018-03-26T01:32:31.231Z,36.27
2018-03-26T01:34:59.212Z,28.73
2018-03-26T01:37:26.903Z,35.07
2018-03-26T01:39:54.594Z,26.70
2018-03-26T01:42:22.711Z,21.53
2018-03-26T01:44:50.547Z,21.90
2018-03-26T01:47:18.247Z,26.60
2018-03-26T01:49:47.034Z,26.10
2018-03-26T01:52:15.500Z,25.73
2018-03-26T01:54:43.200Z,25.23
2018-03-26T01:57:10.946Z,26.60
2018-03-26T01:59:39.413Z,25.27
2018-03-26T02:02:07.184Z,34.47
2018-03-26T02:04:35.787Z,30.03
2018-03-26T02:07:03.499Z,27.33
2018-03-26T02:09:31.954Z,26.80
2018-03-26T02:11:59.791Z,28.43
2018-03-26T02:14:28.255Z,24.47
2018-03-26T02:16:55.951Z,23.23
2018-03-26T02:19:23.695Z,24.97
2018-03-26T02:21:52.159Z,22.70
2018-03-26T02:24:20.619Z,22.30
2018-03-26T02:26:48.363Z,29.87
2018-03-26T02:29:16.059Z,23.03
2018-03-26T02:31:43.756Z,29.70
2018-03-26T02:34:12.269Z,26.87
2018-03-26T02:36:39.986Z,25.73
2018-03-26T02:39:08.453Z,23.60
2018-03-26T02:41:37.143Z,19.57
2018-03-26T02:44:05.625Z,20.83
2018-03-26T02:46:34.105Z,20.00
2018-03-26T02:49:02.912Z,20.80
2018-03-26T02:51:31.384Z,22.40
2018-03-26T02:53:59.850Z,24.50
2018-03-26T02:56:27.596Z,20.33
2018-03-26T02:58:55.324Z,13.67
2018-03-26T03:01:23.025Z,13.53
2018-03-26T03:03:51.679Z,14.17
2018-03-26T03:06:19.375Z,12.80
2018-03-26T03:08:47.860Z,16.63
2018-03-26T03:11:16.363Z,17.13
2018-03-26T03:13:44.051Z,13.50
2018-03-26T03:16:11.747Z,12.23
2018-03-26T03:18:39.499Z,14.27
2018-03-26T03:21:07.191Z,12.60
2018-03-26T03:23:35.654Z,9.37
2018-03-26T03:26:03.386Z,7.83
2018-03-26T03:28:31.075Z,6.03
2018-03-26T03:30:58.768Z,7.20
2018-03-26T03:33:26.510Z,7.07
2018-03-26T03:35:54.975Z,12.43
2018-03-26T03:38:22.671Z,17.70
2018-03-26T03:40:51.465Z,11.77
2018-03-26T03:43:19.159Z,18.20
2018-03-26T03:45:46.970Z,42.50
2018-03-26T03:48:15.659Z,13.30
2018-03-26T03:50:44.110Z,7.37
2018-03-26T03:53:11.803Z,9.03
2018-03-26T03:55:40.311Z,15.37
2018-03-26T03:58:08.002Z,9.37
2018-03-26T04:00:35.691Z,9.17
2018-03-26T04:03:03.671Z,7.07
2018-03-26T04:05:31.359Z,6.97
2018-03-26T04:07:59.825Z,8.43
2018-03-26T04:10:28.499Z,6.03
2018-03-26T04:12:56.187Z,8.17
2018-03-26T04:15:24.662Z,7.33
2018-03-26T04:17:53.375Z,8.00
2018-03-26T04:20:21.055Z,8.43
2018-03-26T04:22:48.755Z,9.00
2018-03-26T04:25:16.499Z,8.43
2018-03-26T04:27:44.191Z,5.93
2018-03-26T04:30:12.645Z,7.63
2018-03-26T04:32:40.387Z,10.77
2018-03-26T04:35:08.080Z,9.80
2018-03-26T04:37:35.771Z,9.30
2018-03-26T04:40:04.386Z,8.40
2018-03-26T04:42:32.084Z,11.63
2018-03-26T04:44:59.772Z,8.50
2018-03-26T04:47:28.275Z,10.53
2018-03-26T04:49:55.968Z,10.57
2018-03-26T04:52:23.671Z,15.20
2018-03-26T04:54:52.347Z,10.57
2018-03-26T04:57:20.811Z,10.07
2018-03-26T04:59:48.508Z,11.53
2018-03-26T05:02:17.061Z,13.43
2018-03-26T05:04:44.748Z,9.43
2018-03-26T05:07:13.220Z,12.53
2018-03-26T05:09:41.732Z,13.50
2018-03-26T05:12:09.427Z,13.03
2018-03-26T05:14:37.127Z,16.37
2018-03-26T05:17:05.635Z,13.53
2018-03-26T05:19:33.327Z,13.97
2018-03-26T05:22:01.019Z,17.30
2018-03-26T05:24:28.758Z,25.57
2018-03-26T05:26:56.458Z,17.97
2018-03-26T05:29:24.154Z,21.03
2018-03-26T05:31:51.906Z,14.90
2018-03-26T05:34:19.599Z,11.57
2018-03-26T05:36:47.297Z,13.43
2018-03-26T05:39:15.183Z,15.77
2018-03-26T05:41:43.647Z,16.80
2018-03-26T05:44:11.342Z,20.60
2018-03-26T05:46:39.090Z,12.40
2018-03-26T05:49:07.551Z,14.27
2018-03-26T05:51:35.244Z,13.27
2018-03-26T05:54:03.771Z,13.60
2018-03-26T05:56:31.471Z,13.60
2018-03-26T05:58:59.167Z,13.10
2018-03-26T06:01:27.015Z,13.03
2018-03-26T06:03:55.503Z,10.37
2018-03-26T06:06:23.968Z,13.37
2018-03-26T06:08:52.655Z,11.00
2018-03-26T06:11:21.115Z,26.87
2018-03-26T06:13:48.816Z,17.70
2018-03-26T06:16:16.767Z,16.90
2018-03-26T06:18:45.255Z,36.03
2018-03-26T06:21:13.742Z,47.77
2018-03-26T06:23:42.420Z,36.57
2018-03-26T06:26:10.907Z,33.00
2018-03-26T06:28:39.399Z,37.17
2018-03-26T06:31:07.305Z,25.87
2018-03-26T06:33:35.027Z,13.37
2018-03-26T06:36:02.751Z,15.60
2018-03-26T06:38:39.345Z,13.07
2018-03-26T06:41:07.831Z,11.63
2018-03-26T06:43:36.299Z,14.83
2018-03-26T06:46:04.817Z,13.07
2018-03-26T06:48:32.512Z,15.40
2018-03-26T06:51:00.216Z,22.60
2018-03-26T06:53:29.100Z,23.30
2018-03-26T06:55:57.575Z,16.10
2018-03-26T06:58:25.268Z,14.70
2018-03-26T07:00:53.024Z,12.43
2018-03-26T07:03:21.496Z,12.73
2018-03-26T07:05:49.975Z,12.90
2018-03-26T07:08:18.481Z,12.80
2018-03-26T07:10:46.183Z,13.70
2018-03-26T07:13:13.888Z,14.43
2018-03-26T07:15:42.404Z,18.87
2018-03-26T07:18:10.130Z,16.37
2018-03-26T07:20:38.603Z,18.63
2018-03-26T07:23:07.144Z,19.57
2018-03-26T07:25:34.872Z,18.60
2018-03-26T07:28:02.589Z,24.23
2018-03-26T07:30:30.475Z,46.70
2018-03-26T07:32:58.176Z,37.43
2018-03-26T07:35:25.871Z,33.47
2018-03-26T07:37:53.635Z,29.80
2018-03-26T07:40:21.331Z,24.93
2018-03-26T07:42:49.808Z,31.47
2018-03-26T07:45:18.319Z,32.07
2018-03-26T07:47:46.016Z,29.30
2018-03-26T07:50:14.482Z,32.07
2018-03-26T07:52:42.236Z,25.97
2018-03-26T07:55:09.932Z,32.57
2018-03-26T07:57:37.641Z,39.27
2018-03-26T08:00:06.189Z,32.43
2018-03-26T08:02:33.895Z,35.27
2018-03-26T08:05:02.368Z,36.07
2018-03-26T08:07:30.967Z,36.23
2018-03-26T08:09:58.668Z,34.40
2018-03-26T08:12:26.368Z,40.70
2018-03-26T08:14:54.988Z,55.83
2018-03-26T08:17:22.702Z,33.57
2018-03-26T08:19:51.180Z,40.43
2018-03-26T08:22:19.796Z,35.03
2018-03-26T08:24:47.495Z,44.10
2018-03-26T08:27:15.198Z,28.00
2018-03-26T08:29:43.083Z,26.27
2018-03-26T08:32:11.547Z,24.07
2018-03-26T08:34:40.012Z,19.67
2018-03-26T08:37:07.999Z,20.37
2018-03-26T08:39:36.468Z,18.50
2018-03-26T08:42:04.199Z,21.30
2018-03-26T08:44:31.947Z,20.90
2018-03-26T08:46:59.645Z,23.07
2018-03-26T08:49:27.348Z,22.20
2018-03-26T08:51:55.300Z,23.70
2018-03-26T08:54:23.008Z,23.27
2018-03-26T08:56:51.475Z,22.80
2018-03-26T08:59:19.320Z,20.37
2018-03-26T09:01:47.783Z,27.97
2018-03-26T09:04:15.483Z,24.13
2018-03-26T09:06:43.243Z,20.80
2018-03-26T09:09:10.945Z,19.90
2018-03-26T09:11:38.647Z,24.70
2018-03-26T09:14:06.399Z,18.20
2018-03-26T09:16:34.113Z,21.97
2018-03-26T09:19:02.596Z,21.13
2018-03-26T09:21:31.108Z,30.27
2018-03-26T09:23:58.815Z,26.43
2018-03-26T09:26:26.516Z,32.00
2018-03-26T09:28:54.463Z,40.90
2018-03-26T09:31:25.603Z,30.97
2018-03-26T09:33:53.303Z,35.40
2018-03-26T09:36:21.075Z,26.33
2018-03-26T09:38:48.772Z,27.77
2018-03-26T09:41:16.475Z,27.77
2018-03-26T09:43:45.000Z,26.47
2018-03-26T09:46:12.728Z,52.87
2018-03-26T09:48:41.191Z,24.37
2018-03-26T09:51:09.720Z,18.77
2018-03-26T09:53:37.424Z,35.90
2018-03-26T09:56:05.124Z,26.40
2018-03-26T09:58:33.167Z,26.97
2018-03-26T10:01:01.641Z,19.30
2018-03-26T10:03:30.119Z,22.77
2018-03-26T10:05:58.199Z,22.67
2018-03-26T10:08:25.897Z,25.50
2018-03-26T10:10:53.605Z,24.63
2018-03-26T10:13:21.700Z,28.10
2018-03-26T10:15:50.176Z,25.03
2018-03-26T10:18:17.880Z,23.37
2018-03-26T10:20:45.731Z,23.00
2018-03-26T10:23:13.436Z,26.20
2018-03-26T10:25:41.136Z,25.23
2018-03-26T10:28:10.572Z,24.63
2018-03-26T10:30:38.287Z,28.37
2018-03-26T10:33:06.751Z,29.33
2018-03-26T10:35:35.269Z,28.47
2018-03-26T10:38:02.969Z,30.03
2018-03-26T10:40:30.672Z,32.70
2018-03-26T10:42:59.193Z,33.97
2018-03-26T10:45:26.892Z,31.10
2018-03-26T10:47:54.595Z,35.27
2018-03-26T10:50:22.535Z,35.37
2018-03-26T10:52:51.011Z,31.97
2018-03-26T10:55:19.483Z,33.03
2018-03-26T10:57:47.235Z,38.53
2018-03-26T11:00:14.936Z,41.03
2018-03-26T11:02:43.407Z,45.73
2018-03-26T11:05:11.935Z,39.03
2018-03-26T11:07:39.667Z,41.10
2018-03-26T11:10:08.152Z,42.30
2018-03-26T11:12:35.998Z,41.13
2018-03-26T11:15:04.517Z,41.47
2018-03-26T11:17:32.228Z,40.43
2018-03-26T11:20:00.107Z,40.27
2018-03-26T11:22:28.603Z,41.70
2018-03-26T11:24:56.302Z,42.13
2018-03-26T11:27:24.115Z,43.57
2018-03-26T11:29:53.368Z,42.10
2018-03-26T11:32:21.241Z,48.77
2018-03-26T11:34:49.152Z,57.20
2018-03-26T11:37:17.635Z,64.07
2018-03-26T11:39:46.168Z,57.17
2018-03-26T11:42:14.019Z,48.33
2018-03-26T11:44:41.742Z,53.23
2018-03-26T11:47:10.227Z,60.47
2018-03-26T11:49:38.914Z,55.40
2018-03-26T11:52:07.396Z,54.70
2018-03-26T11:54:35.883Z,58.60
2018-03-26T11:57:04.417Z,56.13
2018-03-26T11:59:32.132Z,58.17
2018-03-26T12:01:59.831Z,56.50
2018-03-26T12:04:27.596Z,57.17
2018-03-26T12:06:55.306Z,85.60
2018-03-26T12:09:23.791Z,85.57
2018-03-26T12:11:53.396Z,64.93
2018-03-26T12:14:21.884Z,66.33
2018-03-26T12:16:50.361Z,59.17
2018-03-26T12:19:18.899Z,75.23
2018-03-26T12:21:46.606Z,60.57
2018-03-26T12:24:26.841Z,56.47
2018-03-26T12:26:54.552Z,60.90
2018-03-26T12:29:47.020Z,57.17
2018-03-26T12:32:14.731Z,69.53
2018-03-26T12:34:55.096Z,56.00
2018-03-26T12:37:23.574Z,64.27
2018-03-26T12:39:52.096Z,66.20
2018-03-26T12:42:19.871Z,59.20
2018-03-26T12:44:59.499Z,57.67
2018-03-26T12:47:27.639Z,57.67
2018-03-26T12:49:56.483Z,58.07
2018-03-26T12:52:36.174Z,67.43
2018-03-26T12:55:04.652Z,68.60
2018-03-26T12:57:45.008Z,56.30
2018-03-26T13:00:13.503Z,60.20
2018-03-26T13:02:41.992Z,60.67
2018-03-26T13:05:09.883Z,63.47
2018-03-26T13:07:37.607Z,59.37
2018-03-26T13:10:06.095Z,61.43
2018-03-26T13:12:34.623Z,68.27
2018-03-26T13:15:02.336Z,84.10
2018-03-26T13:17:30.820Z,70.50
2018-03-26T13:19:58.673Z,68.70
2018-03-26T13:22:27.156Z,62.70
2018-03-26T13:24:55.635Z,67.20
2018-03-26T13:27:24.260Z,486.03
2018-03-26T13:29:51.979Z,243.00
2018-03-26T13:32:20.472Z,124.87
2018-03-26T13:34:48.250Z,107.77
2018-03-26T13:37:15.971Z,138.47
2018-03-26T13:39:44.467Z,97.60
2018-03-26T13:42:12.609Z,67.33
2018-03-26T13:44:41.096Z,73.50
2018-03-26T13:47:09.580Z,72.90
2018-03-26T13:49:38.103Z,65.37
2018-03-26T13:52:05.870Z,204.47
2018-03-26T13:54:33.640Z,83.63
2018-03-26T13:57:01.651Z,74.20
2018-03-26T13:59:30.136Z,78.47
2018-03-26T14:01:58.623Z,65.63
2018-03-26T14:04:27.152Z,67.80
2018-03-26T14:06:54.867Z,67.77
2018-03-26T14:09:36.160Z,61.10
2018-03-26T14:12:15.708Z,100.10
2018-03-26T14:14:55.272Z,57.90
2018-03-26T14:17:34.785Z,57.37
2018-03-26T14:20:02.732Z,59.73
2018-03-26T14:22:31.223Z,58.77
2018-03-26T14:24:59.747Z,59.03
2018-03-26T14:27:27.769Z,64.93
2018-03-26T14:29:56.255Z,48.90
2018-03-26T14:32:24.831Z,44.37
2018-03-26T14:35:05.202Z,52.10
2018-03-26T14:37:33.683Z,60.77
2018-03-26T14:40:02.168Z,56.47
2018-03-26T14:42:30.792Z,61.43
2018-03-26T14:44:58.513Z,67.33
2018-03-26T14:47:26.248Z,92.63
2018-03-26T14:49:54.013Z,86.47
2018-03-26T14:52:21.742Z,64.47
2018-03-26T14:54:49.465Z,67.17
2018-03-26T14:57:18.244Z,79.47
2018-03-26T14:59:46.727Z,55.70
2018-03-26T15:02:15.203Z,55.67
2018-03-26T15:04:43.731Z,69.83
2018-03-26T15:07:11.450Z,77.00
2018-03-26T15:09:39.200Z,81.60
2018-03-26T15:12:07.177Z,75.43
2018-03-26T15:14:35.664Z,65.97
2018-03-26T15:17:04.171Z,71.43
2018-03-26T15:19:31.931Z,67.47
2018-03-26T15:21:59.636Z,70.53
2018-03-26T15:24:27.352Z,69.53
2018-03-26T15:26:55.112Z,102.97
2018-03-26T15:29:22.822Z,98.50
2018-03-26T15:31:50.539Z,114.83
2018-03-26T15:34:19.052Z,80.97
2018-03-26T15:36:46.813Z,116.23
2018-03-26T15:39:14.536Z,128.50
2018-03-26T15:41:43.065Z,111.50
2018-03-26T15:44:10.779Z,117.00
2018-03-26T15:46:39.288Z,111.57
2018-03-26T15:49:07.052Z,95.57
2018-03-26T15:51:34.763Z,100.47
2018-03-26T15:54:02.491Z,118.17
2018-03-26T15:56:30.260Z,91.83
2018-03-26T15:58:57.987Z,88.80
2018-03-26T16:01:26.464Z,96.40
2018-03-26T16:03:55.340Z,99.23
2018-03-26T16:06:23.064Z,95.57
2018-03-26T16:08:50.804Z,108.53
2018-03-26T16:11:18.748Z,107.90
2018-03-26T16:13:47.231Z,112.23
2018-03-26T16:16:15.715Z,90.50
2018-03-26T16:18:44.239Z,93.30
2018-03-26T16:21:11.950Z,88.37
2018-03-26T16:23:40.436Z,66.27
2018-03-26T16:26:09.211Z,80.87
2018-03-26T16:28:36.911Z,76.50
2018-03-26T16:31:04.664Z,68.97
2018-03-26T16:33:33.185Z,93.93
2018-03-26T16:36:00.891Z,91.50
2018-03-26T16:38:28.603Z,113.60
2018-03-26T16:40:56.528Z,108.63
2018-03-26T16:43:25.023Z,100.47
2018-03-26T16:45:52.789Z,101.93
2018-03-26T16:48:20.575Z,79.63
2018-03-26T16:50:48.293Z,83.30
2018-03-26T16:53:17.513Z,99.50
2018-03-26T16:55:46.047Z,131.07
2018-03-26T16:58:13.763Z,134.13
2018-03-26T17:00:42.072Z,133.60
2018-03-26T17:03:10.123Z,130.67
2018-03-26T17:05:37.832Z,81.40
2018-03-26T17:08:06.312Z,79.17
2018-03-26T17:10:35.111Z,78.07
2018-03-26T17:13:02.819Z,92.93
2018-03-26T17:15:30.534Z,102.50
2018-03-26T17:17:58.296Z,101.93
2018-03-26T17:20:25.995Z,93.40
2018-03-26T17:22:53.700Z,88.77
2018-03-26T17:25:22.235Z,110.77
2018-03-26T17:27:49.939Z,85.77
2018-03-26T17:30:17.664Z,90.87
2018-03-26T17:32:45.607Z,81.07
2018-03-26T17:35:13.315Z,96.27
2018-03-26T17:37:41.020Z,97.90
2018-03-26T17:40:09.552Z,73.57
2018-03-26T17:42:37.264Z,70.53
2018-03-26T17:45:05.777Z,74.47
2018-03-26T17:47:33.970Z,65.20
2018-03-26T17:50:01.700Z,85.63
2018-03-26T17:52:29.459Z,69.50
2018-03-26T17:54:58.071Z,70.17
2018-03-26T17:57:25.779Z,76.53
2018-03-26T17:59:53.491Z,69.27
2018-03-26T18:02:21.476Z,81.13
2018-03-26T18:04:50.063Z,91.20
2018-03-26T18:07:18.543Z,100.07
2018-03-26T18:09:47.071Z,104.33
2018-03-26T18:12:14.792Z,106.43
2018-03-26T18:14:43.272Z,91.30
2018-03-26T18:17:11.887Z,81.37
2018-03-26T18:19:39.822Z,83.67
2018-03-26T18:22:08.359Z,99.23
2018-03-26T18:24:36.187Z,85.67
2018-03-26T18:27:03.928Z,88.07
2018-03-26T18:31:51.896Z,91.43
2018-03-26T18:34:20.469Z,106.73
2018-03-26T18:36:49.805Z,76.43
2018-03-26T18:39:18.428Z,55.67
2018-03-26T18:41:47.033Z,64.17
2018-03-26T18:44:16.380Z,60.80
2018-03-26T18:46:45.001Z,66.93
2018-03-26T18:49:13.568Z,86.53
2018-03-26T18:51:42.145Z,119.80
2018-03-26T18:54:11.589Z,186.30
2018-03-26T18:56:40.957Z,123.13
2018-03-26T18:59:09.533Z,122.07
2018-03-26T19:01:38.309Z,104.83
2018-03-26T19:04:06.889Z,134.87
2018-03-26T19:06:35.458Z,133.03
2018-03-26T19:09:04.313Z,166.77
2018-03-26T19:11:33.717Z,176.00
2018-03-26T19:14:02.286Z,195.03
2018-03-26T19:16:30.910Z,121.70
2018-03-26T19:18:59.494Z,75.40
2018-03-26T19:21:28.072Z,70.13
2018-03-26T19:23:56.731Z,58.80
2018-03-26T19:26:25.297Z,79.17
2018-03-26T19:28:53.869Z,81.77
2018-03-26T19:31:23.470Z,74.07
2018-03-26T19:33:52.158Z,75.37
2018-03-26T19:36:20.768Z,74.67
2018-03-26T19:38:49.400Z,81.90
2018-03-26T19:41:18.046Z,69.73
2018-03-26T19:43:47.440Z,70.53
2018-03-26T19:46:16.210Z,63.20
2018-03-26T19:48:44.780Z,48.27
2018-03-26T19:51:13.379Z,44.33
2018-03-26T19:53:42.164Z,42.10
2018-03-26T19:56:10.752Z,61.37
2018-03-26T19:58:39.327Z,69.80
2018-03-26T20:01:07.954Z,59.57
2018-03-26T20:03:37.340Z,61.33
2018-03-26T20:06:05.928Z,81.50
2018-03-26T20:08:35.317Z,53.67
2018-03-26T20:11:03.950Z,53.63
2018-03-26T20:13:32.521Z,68.63
2018-03-26T20:16:01.257Z,65.83
2018-03-26T20:18:29.836Z,76.63
2018-03-26T20:20:58.408Z,68.77
2018-03-26T20:23:27.345Z,50.13
2018-03-26T20:25:57.430Z,45.80
2018-03-26T20:28:26.013Z,45.70
2018-03-26T20:30:54.785Z,62.90
2018-03-26T20:33:23.353Z,86.47
2018-03-26T20:35:51.932Z,70.10
2018-03-26T20:38:20.958Z,81.10
2018-03-26T20:40:49.513Z,69.97
2018-03-26T20:43:18.085Z,112.03
2018-03-26T20:45:46.710Z,88.63
2018-03-26T20:48:15.278Z,108.53
2018-03-26T20:50:43.844Z,55.83
2018-03-26T20:53:12.473Z,53.00
2018-03-26T20:55:41.045Z,52.90
2018-03-26T20:58:09.612Z,52.63
2018-03-26T21:00:38.415Z,62.90
2018-03-26T21:03:07.001Z,89.87
2018-03-26T21:05:35.568Z,86.70
2018-03-26T21:08:04.240Z,94.97
2018-03-26T21:10:33.544Z,64.83
2018-03-26T21:13:02.128Z,74.73
2018-03-26T21:15:30.896Z,63.63
2018-03-26T21:17:59.464Z,51.70
2018-03-26T21:20:28.801Z,52.83
2018-03-26T21:22:57.423Z,52.77
2018-03-26T21:25:25.996Z,51.60
2018-03-26T21:27:54.564Z,59.97
2018-03-26T21:30:23.188Z,55.77
2018-03-26T21:32:51.757Z,49.87
2018-03-26T21:35:20.328Z,46.93
2018-03-26T21:37:48.941Z,48.67
2018-03-26T21:40:17.517Z,43.23
2018-03-26T21:42:46.084Z,41.80
2018-03-26T21:45:14.801Z,40.37
2018-03-26T21:47:44.138Z,41.80
2018-03-26T21:50:12.748Z,38.77
2018-03-26T21:52:41.368Z,39.00
2018-03-26T21:55:09.934Z,40.30
2018-03-26T21:57:38.508Z,38.50
2018-03-26T22:00:21.214Z,39.47
2018-03-26T22:02:49.829Z,41.50
2018-03-26T22:05:19.926Z,40.37
2018-03-26T22:07:48.808Z,43.47
2018-03-26T22:10:17.384Z,48.57
2018-03-26T22:12:45.974Z,41.07
2018-03-26T22:15:14.693Z,42.40
2018-03-26T22:17:43.252Z,42.90
2018-03-26T22:20:11.834Z,45.77
2018-03-26T22:22:40.532Z,41.67
2018-03-26T22:25:09.144Z,41.63
2018-03-26T22:27:38.476Z,39.13
2018-03-26T22:30:07.497Z,43.80
2018-03-26T22:32:36.060Z,50.90
2018-03-26T22:35:04.637Z,46.90
2018-03-26T22:37:33.646Z,51.50
2018-03-26T22:40:02.294Z,51.53
2018-03-26T22:42:30.856Z,55.43
2018-03-26T22:45:00.236Z,52.73
2018-03-26T22:47:28.807Z,52.77
2018-03-26T22:49:57.368Z,48.10
2018-03-26T22:52:26.121Z,43.43
2018-03-26T22:54:55.452Z,44.63
2018-03-26T22:57:24.012Z,42.17
2018-03-26T22:59:52.642Z,36.93
2018-03-26T23:02:21.229Z,41.50
2018-03-26T23:04:49.793Z,38.63
2018-03-26T23:07:18.400Z,42.67
2018-03-26T23:09:46.984Z,41.17
2018-03-26T23:12:16.320Z,39.87
2018-03-26T23:14:45.692Z,39.57
2018-03-26T23:17:14.272Z,42.03
2018-03-26T23:19:42.862Z,43.03
2018-03-26T23:22:11.581Z,46.70
2018-03-26T23:24:40.908Z,51.63
2018-03-26T23:27:09.480Z,54.63
2018-03-26T23:29:38.396Z,59.73
2018-03-26T23:32:06.952Z,61.10
2018-03-26T23:34:35.513Z,63.77
2018-03-26T23:37:05.185Z,55.90
2018-03-26T23:39:33.748Z,51.70
2018-03-26T23:42:02.306Z,59.03
2018-03-26T23:44:31.745Z,58.47
2018-03-26T23:47:00.304Z,46.87
2018-03-26T23:49:28.862Z,46.50
2018-03-26T23:51:58.341Z,49.30
2018-03-26T23:54:27.710Z,47.27
2018-03-26T23:56:56.280Z,45.87
2018-03-26T23:59:25.165Z,46.00
